sensor_id;sensor_type;location;lat;lon;timestamp;P1;durP1;ratioP1;P2;durP2;ratioP2
2035;SDS011;23642;42.658;23.350;2023-04-01T00:00:45;110.53;;;103.03;;
2035;SDS011;23642;42.658;23.350;2023-04-01T00:03:11;111.67;;;103.97;;
2035;SDS011;23642;42.658;23.350;2023-04-01T00:05:38;116.37;;;108.07;;
2035;SDS011;23642;42.658;23.350;2023-04-01T00:08:05;116.60;;;108.20;;
2035;SDS011;23642;42.658;23.350;2023-04-01T00:10:34;119.53;;;111.20;;
2035;SDS011;23642;42.658;23.350;2023-04-01T00:13:02;118.20;;;110.17;;
2035;SDS011;23642;42.658;23.350;2023-04-01T00:15:29;117.43;;;109.50;;
2035;SDS011;23642;42.658;23.350;2023-04-01T00:17:56;120.63;;;111.23;;
2035;SDS011;23642;42.658;23.350;2023-04-01T00:20:23;118.47;;;110.37;;
2035;SDS011;23642;42.658;23.350;2023-04-01T00:22:50;118.93;;;110.80;;
2035;SDS011;23642;42.658;23.350;2023-04-01T00:25:18;117.93;;;109.60;;
2035;SDS011;23642;42.658;23.350;2023-04-01T00:27:44;114.60;;;107.10;;
2035;SDS011;23642;42.658;23.350;2023-04-01T00:30:13;113.53;;;106.17;;
2035;SDS011;23642;42.658;23.350;2023-04-01T00:32:40;117.47;;;109.90;;
2035;SDS011;23642;42.658;23.350;2023-04-01T00:35:07;116.90;;;109.00;;
2035;SDS011;23642;42.658;23.350;2023-04-01T00:37:35;117.67;;;110.20;;
2035;SDS011;23642;42.658;23.350;2023-04-01T00:40:04;115.77;;;108.47;;
2035;SDS011;23642;42.658;23.350;2023-04-01T00:42:33;114.87;;;106.80;;
2035;SDS011;23642;42.658;23.350;2023-04-01T00:45:21;116.77;;;108.57;;
2035;SDS011;23642;42.658;23.350;2023-04-01T00:47:53;115.63;;;108.17;;
2035;SDS011;23642;42.658;23.350;2023-04-01T00:50:21;113.53;;;106.27;;
2035;SDS011;23642;42.658;23.350;2023-04-01T00:52:50;114.50;;;107.23;;
2035;SDS011;23642;42.658;23.350;2023-04-01T00:55:18;117.07;;;109.20;;
2035;SDS011;23642;42.658;23.350;2023-04-01T00:57:47;113.70;;;106.50;;
2035;SDS011;23642;42.658;23.350;2023-04-01T01:00:17;114.90;;;107.70;;
2035;SDS011;23642;42.658;23.350;2023-04-01T01:02:45;111.23;;;103.90;;
2035;SDS011;23642;42.658;23.350;2023-04-01T01:05:15;112.07;;;104.70;;
2035;SDS011;23642;42.658;23.350;2023-04-01T01:07:45;111.00;;;103.53;;
2035;SDS011;23642;42.658;23.350;2023-04-01T01:10:19;112.40;;;105.20;;
2035;SDS011;23642;42.658;23.350;2023-04-01T01:12:50;109.37;;;102.03;;
2035;SDS011;23642;42.658;23.350;2023-04-01T01:15:29;111.77;;;104.40;;
2035;SDS011;23642;42.658;23.350;2023-04-01T01:18:01;112.97;;;105.97;;
2035;SDS011;23642;42.658;23.350;2023-04-01T01:24:03;115.30;;;107.43;;
2035;SDS011;23642;42.658;23.350;2023-04-01T01:26:53;114.90;;;107.50;;
2035;SDS011;23642;42.658;23.350;2023-04-01T01:29:35;112.80;;;105.60;;
2035;SDS011;23642;42.658;23.350;2023-04-01T01:32:14;112.03;;;104.93;;
2035;SDS011;23642;42.658;23.350;2023-04-01T01:34:47;111.93;;;104.10;;
2035;SDS011;23642;42.658;23.350;2023-04-01T01:37:20;108.50;;;101.67;;
2035;SDS011;23642;42.658;23.350;2023-04-01T01:39:53;111.40;;;104.13;;
2035;SDS011;23642;42.658;23.350;2023-04-01T01:42:22;111.33;;;104.07;;
2035;SDS011;23642;42.658;23.350;2023-04-01T01:44:52;109.77;;;102.83;;
2035;SDS011;23642;42.658;23.350;2023-04-01T01:47:21;109.50;;;102.23;;
2035;SDS011;23642;42.658;23.350;2023-04-01T01:49:49;106.90;;;100.30;;
2035;SDS011;23642;42.658;23.350;2023-04-01T01:52:18;110.10;;;103.07;;
2035;SDS011;23642;42.658;23.350;2023-04-01T01:54:48;112.97;;;105.73;;
2035;SDS011;23642;42.658;23.350;2023-04-01T01:57:15;108.20;;;101.20;;
2035;SDS011;23642;42.658;23.350;2023-04-01T01:59:45;107.37;;;100.53;;
2035;SDS011;23642;42.658;23.350;2023-04-01T02:02:14;109.23;;;102.07;;
2035;SDS011;23642;42.658;23.350;2023-04-01T02:04:43;109.47;;;102.67;;
2035;SDS011;23642;42.658;23.350;2023-04-01T02:07:13;105.60;;;98.90;;
2035;SDS011;23642;42.658;23.350;2023-04-01T02:09:46;109.93;;;103.07;;
2035;SDS011;23642;42.658;23.350;2023-04-01T02:12:14;106.90;;;100.00;;
2035;SDS011;23642;42.658;23.350;2023-04-01T02:14:43;108.57;;;101.63;;
2035;SDS011;23642;42.658;23.350;2023-04-01T02:17:15;110.50;;;103.70;;
2035;SDS011;23642;42.658;23.350;2023-04-01T02:19:46;110.30;;;103.53;;
2035;SDS011;23642;42.658;23.350;2023-04-01T02:22:17;108.10;;;101.53;;
2035;SDS011;23642;42.658;23.350;2023-04-01T02:24:49;108.80;;;102.00;;
2035;SDS011;23642;42.658;23.350;2023-04-01T02:27:18;108.57;;;101.67;;
2035;SDS011;23642;42.658;23.350;2023-04-01T02:29:46;106.60;;;100.00;;
2035;SDS011;23642;42.658;23.350;2023-04-01T02:32:13;108.63;;;100.73;;
2035;SDS011;23642;42.658;23.350;2023-04-01T02:34:42;105.57;;;98.83;;
2035;SDS011;23642;42.658;23.350;2023-04-01T02:37:10;107.37;;;100.70;;
2035;SDS011;23642;42.658;23.350;2023-04-01T02:39:37;107.63;;;100.50;;
2035;SDS011;23642;42.658;23.350;2023-04-01T02:42:15;114.23;;;106.90;;
2035;SDS011;23642;42.658;23.350;2023-04-01T02:44:42;110.17;;;103.33;;
2035;SDS011;23642;42.658;23.350;2023-04-01T02:47:09;111.07;;;104.23;;
2035;SDS011;23642;42.658;23.350;2023-04-01T02:49:38;108.20;;;101.10;;
2035;SDS011;23642;42.658;23.350;2023-04-01T02:52:05;111.60;;;104.63;;
2035;SDS011;23642;42.658;23.350;2023-04-01T02:54:31;108.97;;;102.07;;
2035;SDS011;23642;42.658;23.350;2023-04-01T02:56:58;111.90;;;104.63;;
2035;SDS011;23642;42.658;23.350;2023-04-01T02:59:27;111.53;;;103.93;;
2035;SDS011;23642;42.658;23.350;2023-04-01T03:01:53;112.80;;;106.10;;
2035;SDS011;23642;42.658;23.350;2023-04-01T03:04:20;111.33;;;104.23;;
2035;SDS011;23642;42.658;23.350;2023-04-01T03:06:47;110.43;;;103.37;;
2035;SDS011;23642;42.658;23.350;2023-04-01T03:09:14;108.97;;;102.13;;
2035;SDS011;23642;42.658;23.350;2023-04-01T03:11:41;111.77;;;104.53;;
2035;SDS011;23642;42.658;23.350;2023-04-01T03:14:09;112.40;;;105.60;;
2035;SDS011;23642;42.658;23.350;2023-04-01T03:16:37;109.90;;;103.00;;
2035;SDS011;23642;42.658;23.350;2023-04-01T03:19:04;111.03;;;104.13;;
2035;SDS011;23642;42.658;23.350;2023-04-01T03:21:31;107.00;;;100.40;;
2035;SDS011;23642;42.658;23.350;2023-04-01T03:23:57;110.83;;;104.13;;
2035;SDS011;23642;42.658;23.350;2023-04-01T03:26:24;111.57;;;103.90;;
2035;SDS011;23642;42.658;23.350;2023-04-01T03:28:53;114.63;;;107.33;;
2035;SDS011;23642;42.658;23.350;2023-04-01T03:31:20;114.50;;;107.20;;
2035;SDS011;23642;42.658;23.350;2023-04-01T03:33:48;113.13;;;105.73;;
2035;SDS011;23642;42.658;23.350;2023-04-01T03:36:14;109.53;;;102.40;;
2035;SDS011;23642;42.658;23.350;2023-04-01T03:38:42;112.90;;;105.80;;
2035;SDS011;23642;42.658;23.350;2023-04-01T03:41:11;112.63;;;105.23;;
2035;SDS011;23642;42.658;23.350;2023-04-01T03:43:38;117.53;;;109.63;;
2035;SDS011;23642;42.658;23.350;2023-04-01T03:46:05;114.77;;;107.20;;
2035;SDS011;23642;42.658;23.350;2023-04-01T03:48:32;115.73;;;108.53;;
2035;SDS011;23642;42.658;23.350;2023-04-01T03:51:00;111.03;;;103.40;;
2035;SDS011;23642;42.658;23.350;2023-04-01T03:53:27;112.37;;;105.40;;
2035;SDS011;23642;42.658;23.350;2023-04-01T03:55:54;112.23;;;104.97;;
2035;SDS011;23642;42.658;23.350;2023-04-01T03:58:21;111.60;;;104.50;;
2035;SDS011;23642;42.658;23.350;2023-04-01T04:00:48;109.83;;;102.63;;
2035;SDS011;23642;42.658;23.350;2023-04-01T04:03:15;111.63;;;104.73;;
2035;SDS011;23642;42.658;23.350;2023-04-01T04:05:45;109.60;;;101.67;;
2035;SDS011;23642;42.658;23.350;2023-04-01T04:08:15;107.73;;;100.33;;
2035;SDS011;23642;42.658;23.350;2023-04-01T04:10:43;109.53;;;102.57;;
2035;SDS011;23642;42.658;23.350;2023-04-01T04:13:11;107.10;;;99.83;;
2035;SDS011;23642;42.658;23.350;2023-04-01T04:15:38;107.67;;;100.37;;
2035;SDS011;23642;42.658;23.350;2023-04-01T04:18:05;106.80;;;99.67;;
2035;SDS011;23642;42.658;23.350;2023-04-01T04:20:32;105.57;;;98.80;;
2035;SDS011;23642;42.658;23.350;2023-04-01T04:23:00;109.10;;;101.80;;
2035;SDS011;23642;42.658;23.350;2023-04-01T04:25:28;105.30;;;98.40;;
2035;SDS011;23642;42.658;23.350;2023-04-01T04:27:55;106.47;;;98.67;;
2035;SDS011;23642;42.658;23.350;2023-04-01T04:30:23;106.43;;;99.30;;
2035;SDS011;23642;42.658;23.350;2023-04-01T04:32:51;108.53;;;100.80;;
2035;SDS011;23642;42.658;23.350;2023-04-01T04:35:18;108.07;;;100.97;;
2035;SDS011;23642;42.658;23.350;2023-04-01T04:37:45;106.17;;;99.20;;
2035;SDS011;23642;42.658;23.350;2023-04-01T04:40:12;109.43;;;101.90;;
2035;SDS011;23642;42.658;23.350;2023-04-01T04:42:42;107.37;;;100.40;;
2035;SDS011;23642;42.658;23.350;2023-04-01T04:45:09;107.10;;;100.10;;
2035;SDS011;23642;42.658;23.350;2023-04-01T04:47:37;105.40;;;98.30;;
2035;SDS011;23642;42.658;23.350;2023-04-01T04:50:04;106.60;;;99.57;;
2035;SDS011;23642;42.658;23.350;2023-04-01T04:52:32;105.37;;;97.63;;
2035;SDS011;23642;42.658;23.350;2023-04-01T04:54:59;106.03;;;99.10;;
2035;SDS011;23642;42.658;23.350;2023-04-01T04:57:26;105.47;;;98.37;;
2035;SDS011;23642;42.658;23.350;2023-04-01T04:59:54;105.73;;;98.73;;
2035;SDS011;23642;42.658;23.350;2023-04-01T05:02:21;103.53;;;96.33;;
2035;SDS011;23642;42.658;23.350;2023-04-01T05:04:48;107.37;;;100.13;;
2035;SDS011;23642;42.658;23.350;2023-04-01T05:07:14;104.50;;;97.43;;
2035;SDS011;23642;42.658;23.350;2023-04-01T05:09:41;104.97;;;98.00;;
2035;SDS011;23642;42.658;23.350;2023-04-01T05:12:10;108.07;;;100.43;;
2035;SDS011;23642;42.658;23.350;2023-04-01T05:14:38;111.60;;;103.37;;
2035;SDS011;23642;42.658;23.350;2023-04-01T05:17:09;104.67;;;97.50;;
2035;SDS011;23642;42.658;23.350;2023-04-01T05:19:36;105.37;;;98.33;;
2035;SDS011;23642;42.658;23.350;2023-04-01T05:22:03;109.73;;;102.03;;
2035;SDS011;23642;42.658;23.350;2023-04-01T05:24:30;107.10;;;99.90;;
2035;SDS011;23642;42.658;23.350;2023-04-01T05:26:57;105.43;;;98.30;;
2035;SDS011;23642;42.658;23.350;2023-04-01T05:29:24;107.87;;;99.87;;
2035;SDS011;23642;42.658;23.350;2023-04-01T05:31:52;108.03;;;100.63;;
2035;SDS011;23642;42.658;23.350;2023-04-01T05:34:21;105.23;;;98.30;;
2035;SDS011;23642;42.658;23.350;2023-04-01T05:36:48;106.90;;;99.47;;
2035;SDS011;23642;42.658;23.350;2023-04-01T05:39:15;103.67;;;96.67;;
2035;SDS011;23642;42.658;23.350;2023-04-01T05:41:42;103.27;;;95.73;;
2035;SDS011;23642;42.658;23.350;2023-04-01T05:44:10;103.20;;;95.70;;
2035;SDS011;23642;42.658;23.350;2023-04-01T05:46:38;104.07;;;97.00;;
2035;SDS011;23642;42.658;23.350;2023-04-01T05:49:05;102.87;;;95.60;;
2035;SDS011;23642;42.658;23.350;2023-04-01T05:51:33;100.03;;;93.50;;
2035;SDS011;23642;42.658;23.350;2023-04-01T05:54:00;105.33;;;98.27;;
2035;SDS011;23642;42.658;23.350;2023-04-01T05:56:27;105.37;;;98.33;;
2035;SDS011;23642;42.658;23.350;2023-04-01T05:58:54;104.47;;;96.93;;
2035;SDS011;23642;42.658;23.350;2023-04-01T06:01:21;105.20;;;98.37;;
2035;SDS011;23642;42.658;23.350;2023-04-01T06:03:47;106.03;;;98.83;;
2035;SDS011;23642;42.658;23.350;2023-04-01T06:06:15;104.63;;;97.70;;
2035;SDS011;23642;42.658;23.350;2023-04-01T06:08:47;104.17;;;96.70;;
2035;SDS011;23642;42.658;23.350;2023-04-01T06:11:18;104.73;;;97.83;;
2035;SDS011;23642;42.658;23.350;2023-04-01T06:14:00;105.90;;;98.90;;
2035;SDS011;23642;42.658;23.350;2023-04-01T06:16:40;106.57;;;99.00;;
2035;SDS011;23642;42.658;23.350;2023-04-01T06:19:23;107.67;;;99.50;;
2035;SDS011;23642;42.658;23.350;2023-04-01T06:22:07;104.53;;;97.60;;
2035;SDS011;23642;42.658;23.350;2023-04-01T06:27:58;104.23;;;97.33;;
2035;SDS011;23642;42.658;23.350;2023-04-01T06:30:35;106.20;;;99.07;;
2035;SDS011;23642;42.658;23.350;2023-04-01T06:33:17;106.33;;;99.20;;
2035;SDS011;23642;42.658;23.350;2023-04-01T06:36:11;106.80;;;99.83;;
2035;SDS011;23642;42.658;23.350;2023-04-01T06:39:02;103.73;;;96.70;;
2035;SDS011;23642;42.658;23.350;2023-04-01T06:41:54;102.77;;;96.07;;
2035;SDS011;23642;42.658;23.350;2023-04-01T06:44:37;107.50;;;100.47;;
2035;SDS011;23642;42.658;23.350;2023-04-01T06:47:22;108.10;;;100.63;;
2035;SDS011;23642;42.658;23.350;2023-04-01T06:50:00;104.83;;;97.70;;
2035;SDS011;23642;42.658;23.350;2023-04-01T06:52:36;105.27;;;98.17;;
2035;SDS011;23642;42.658;23.350;2023-04-01T06:55:24;106.10;;;98.30;;
2035;SDS011;23642;42.658;23.350;2023-04-01T06:57:55;102.60;;;95.90;;
2035;SDS011;23642;42.658;23.350;2023-04-01T07:00:27;103.13;;;96.10;;
2035;SDS011;23642;42.658;23.350;2023-04-01T07:03:00;101.60;;;94.60;;
2035;SDS011;23642;42.658;23.350;2023-04-01T07:05:33;103.53;;;96.53;;
2035;SDS011;23642;42.658;23.350;2023-04-01T07:08:01;103.23;;;95.90;;
2035;SDS011;23642;42.658;23.350;2023-04-01T07:10:34;103.60;;;96.40;;
2035;SDS011;23642;42.658;23.350;2023-04-01T07:13:04;101.30;;;94.60;;
2035;SDS011;23642;42.658;23.350;2023-04-01T07:15:38;104.53;;;96.93;;
2035;SDS011;23642;42.658;23.350;2023-04-01T07:18:10;106.73;;;98.93;;
2035;SDS011;23642;42.658;23.350;2023-04-01T07:20:42;102.47;;;95.57;;
2035;SDS011;23642;42.658;23.350;2023-04-01T07:23:11;105.67;;;97.93;;
2035;SDS011;23642;42.658;23.350;2023-04-01T07:25:47;105.13;;;98.23;;
2035;SDS011;23642;42.658;23.350;2023-04-01T07:28:20;104.10;;;97.00;;
2035;SDS011;23642;42.658;23.350;2023-04-01T07:30:50;103.73;;;96.63;;
2035;SDS011;23642;42.658;23.350;2023-04-01T07:33:24;104.47;;;97.17;;
2035;SDS011;23642;42.658;23.350;2023-04-01T07:36:01;107.40;;;100.50;;
2035;SDS011;23642;42.658;23.350;2023-04-01T07:38:34;104.67;;;97.87;;
2035;SDS011;23642;42.658;23.350;2023-04-01T07:41:09;104.80;;;97.63;;
2035;SDS011;23642;42.658;23.350;2023-04-01T07:43:47;103.47;;;96.60;;
2035;SDS011;23642;42.658;23.350;2023-04-01T07:49:15;104.53;;;97.33;;
2035;SDS011;23642;42.658;23.350;2023-04-01T07:51:48;105.07;;;98.00;;
2035;SDS011;23642;42.658;23.350;2023-04-01T07:54:25;105.27;;;97.97;;
2035;SDS011;23642;42.658;23.350;2023-04-01T07:57:00;102.87;;;96.07;;
2035;SDS011;23642;42.658;23.350;2023-04-01T07:59:33;104.47;;;97.27;;
2035;SDS011;23642;42.658;23.350;2023-04-01T08:02:14;105.30;;;98.27;;
2035;SDS011;23642;42.658;23.350;2023-04-01T08:04:55;101.60;;;94.60;;
2035;SDS011;23642;42.658;23.350;2023-04-01T08:07:30;105.60;;;98.60;;
2035;SDS011;23642;42.658;23.350;2023-04-01T08:10:05;106.40;;;99.00;;
2035;SDS011;23642;42.658;23.350;2023-04-01T08:12:41;106.83;;;98.93;;
2035;SDS011;23642;42.658;23.350;2023-04-01T08:15:16;105.07;;;97.87;;
2035;SDS011;23642;42.658;23.350;2023-04-01T08:17:53;102.40;;;95.50;;
2035;SDS011;23642;42.658;23.350;2023-04-01T08:20:28;102.17;;;94.83;;
2035;SDS011;23642;42.658;23.350;2023-04-01T08:23:03;105.77;;;97.67;;
2035;SDS011;23642;42.658;23.350;2023-04-01T08:25:34;105.57;;;98.03;;
2035;SDS011;23642;42.658;23.350;2023-04-01T08:28:08;105.40;;;98.30;;
2035;SDS011;23642;42.658;23.350;2023-04-01T08:30:40;104.27;;;96.87;;
2035;SDS011;23642;42.658;23.350;2023-04-01T08:33:12;105.60;;;97.97;;
2035;SDS011;23642;42.658;23.350;2023-04-01T08:35:45;102.93;;;95.70;;
2035;SDS011;23642;42.658;23.350;2023-04-01T08:38:17;102.20;;;94.47;;
2035;SDS011;23642;42.658;23.350;2023-04-01T08:40:55;102.20;;;95.40;;
2035;SDS011;23642;42.658;23.350;2023-04-01T08:43:38;106.73;;;99.60;;
2035;SDS011;23642;42.658;23.350;2023-04-01T08:49:54;103.97;;;97.20;;
2035;SDS011;23642;42.658;23.350;2023-04-01T08:52:33;105.93;;;98.40;;
2035;SDS011;23642;42.658;23.350;2023-04-01T08:57:57;104.97;;;97.80;;
2035;SDS011;23642;42.658;23.350;2023-04-01T09:00:34;101.47;;;94.70;;
2035;SDS011;23642;42.658;23.350;2023-04-01T09:03:15;103.03;;;95.93;;
2035;SDS011;23642;42.658;23.350;2023-04-01T09:09:24;103.03;;;95.93;;
2035;SDS011;23642;42.658;23.350;2023-04-01T09:15:04;102.17;;;95.17;;
2035;SDS011;23642;42.658;23.350;2023-04-01T09:17:55;104.20;;;97.30;;
2035;SDS011;23642;42.658;23.350;2023-04-01T09:20:46;102.97;;;95.97;;
2035;SDS011;23642;42.658;23.350;2023-04-01T09:23:47;102.80;;;96.07;;
2035;SDS011;23642;42.658;23.350;2023-04-01T09:26:40;101.80;;;94.53;;
2035;SDS011;23642;42.658;23.350;2023-04-01T09:29:26;103.80;;;96.60;;
2035;SDS011;23642;42.658;23.350;2023-04-01T09:32:17;101.90;;;95.20;;
2035;SDS011;23642;42.658;23.350;2023-04-01T09:35:04;103.37;;;96.43;;
2035;SDS011;23642;42.658;23.350;2023-04-01T09:37:51;100.27;;;93.70;;
2035;SDS011;23642;42.658;23.350;2023-04-01T09:40:22;98.50;;;92.20;;
2035;SDS011;23642;42.658;23.350;2023-04-01T09:43:13;100.23;;;93.37;;
2035;SDS011;23642;42.658;23.350;2023-04-01T09:45:53;101.33;;;93.63;;
2035;SDS011;23642;42.658;23.350;2023-04-01T09:51:32;101.57;;;94.47;;
2035;SDS011;23642;42.658;23.350;2023-04-01T09:54:19;102.63;;;95.70;;
2035;SDS011;23642;42.658;23.350;2023-04-01T09:57:15;103.97;;;97.20;;
2035;SDS011;23642;42.658;23.350;2023-04-01T10:06:21;101.87;;;94.63;;
2035;SDS011;23642;42.658;23.350;2023-04-01T10:12:41;102.23;;;95.27;;
2035;SDS011;23642;42.658;23.350;2023-04-01T10:15:42;101.47;;;94.60;;
2035;SDS011;23642;42.658;23.350;2023-04-01T10:18:28;100.07;;;93.53;;
2035;SDS011;23642;42.658;23.350;2023-04-01T10:21:16;102.47;;;95.93;;
2035;SDS011;23642;42.658;23.350;2023-04-01T10:33:29;100.00;;;93.47;;
2035;SDS011;23642;42.658;23.350;2023-04-01T10:36:40;101.03;;;94.30;;
2035;SDS011;23642;42.658;23.350;2023-04-01T10:39:19;100.00;;;93.60;;
2035;SDS011;23642;42.658;23.350;2023-04-01T10:45:59;101.50;;;94.63;;
2035;SDS011;23642;42.658;23.350;2023-04-01T10:48:51;99.10;;;92.80;;
2035;SDS011;23642;42.658;23.350;2023-04-01T10:55:14;101.00;;;94.30;;
2035;SDS011;23642;42.658;23.350;2023-04-01T10:58:05;98.00;;;91.60;;
2035;SDS011;23642;42.658;23.350;2023-04-01T11:01:04;99.30;;;93.00;;
2035;SDS011;23642;42.658;23.350;2023-04-01T11:13:08;97.40;;;91.10;;
2035;SDS011;23642;42.658;23.350;2023-04-01T11:25:14;96.60;;;90.43;;
2035;SDS011;23642;42.658;23.350;2023-04-01T11:27:58;99.00;;;92.20;;
2035;SDS011;23642;42.658;23.350;2023-04-01T11:30:51;98.83;;;92.23;;
2035;SDS011;23642;42.658;23.350;2023-04-01T11:33:28;95.40;;;89.23;;
2035;SDS011;23642;42.658;23.350;2023-04-01T11:39:03;99.00;;;92.07;;
2035;SDS011;23642;42.658;23.350;2023-04-01T11:41:50;96.40;;;90.30;;
2035;SDS011;23642;42.658;23.350;2023-04-01T11:44:28;106.73;;;99.70;;
2035;SDS011;23642;42.658;23.350;2023-04-01T11:47:02;108.90;;;101.77;;
2035;SDS011;23642;42.658;23.350;2023-04-01T11:49:57;105.97;;;99.07;;
2035;SDS011;23642;42.658;23.350;2023-04-01T11:52:44;101.43;;;94.13;;
2035;SDS011;23642;42.658;23.350;2023-04-01T11:55:31;101.50;;;94.90;;
2035;SDS011;23642;42.658;23.350;2023-04-01T11:58:12;109.27;;;101.60;;
2035;SDS011;23642;42.658;23.350;2023-04-01T12:00:59;105.07;;;98.17;;
2035;SDS011;23642;42.658;23.350;2023-04-01T12:03:44;103.20;;;96.70;;
2035;SDS011;23642;42.658;23.350;2023-04-01T12:06:25;99.77;;;93.13;;
2035;SDS011;23642;42.658;23.350;2023-04-01T12:09:04;98.70;;;92.00;;
2035;SDS011;23642;42.658;23.350;2023-04-01T12:11:44;94.77;;;88.73;;
2035;SDS011;23642;42.658;23.350;2023-04-01T12:14:22;96.70;;;90.50;;
2035;SDS011;23642;42.658;23.350;2023-04-01T12:17:07;95.60;;;89.47;;
2035;SDS011;23642;42.658;23.350;2023-04-01T12:19:43;93.50;;;87.03;;
2035;SDS011;23642;42.658;23.350;2023-04-01T12:22:34;91.67;;;85.57;;
2035;SDS011;23642;42.658;23.350;2023-04-01T12:25:16;94.90;;;88.53;;
2035;SDS011;23642;42.658;23.350;2023-04-01T12:27:59;97.73;;;90.60;;
2035;SDS011;23642;42.658;23.350;2023-04-01T12:30:50;98.43;;;91.43;;
2035;SDS011;23642;42.658;23.350;2023-04-01T12:33:34;94.40;;;87.93;;
2035;SDS011;23642;42.658;23.350;2023-04-01T12:36:14;91.97;;;85.60;;
2035;SDS011;23642;42.658;23.350;2023-04-01T12:38:57;95.17;;;88.70;;
2035;SDS011;23642;42.658;23.350;2023-04-01T12:41:59;98.80;;;92.30;;
2035;SDS011;23642;42.658;23.350;2023-04-01T12:44:41;97.87;;;91.37;;
2035;SDS011;23642;42.658;23.350;2023-04-01T12:47:32;94.43;;;88.07;;
2035;SDS011;23642;42.658;23.350;2023-04-01T12:50:40;93.37;;;87.07;;
2035;SDS011;23642;42.658;23.350;2023-04-01T12:53:33;91.97;;;85.97;;
2035;SDS011;23642;42.658;23.350;2023-04-01T12:56:09;92.30;;;86.50;;
2035;SDS011;23642;42.658;23.350;2023-04-01T12:58:48;90.73;;;84.70;;
2035;SDS011;23642;42.658;23.350;2023-04-01T13:01:59;92.43;;;86.20;;
2035;SDS011;23642;42.658;23.350;2023-04-01T13:04:33;87.87;;;82.17;;
2035;SDS011;23642;42.658;23.350;2023-04-01T13:10:23;85.80;;;79.77;;
2035;SDS011;23642;42.658;23.350;2023-04-01T13:13:00;85.80;;;80.00;;
2035;SDS011;23642;42.658;23.350;2023-04-01T13:15:43;90.10;;;84.00;;
2035;SDS011;23642;42.658;23.350;2023-04-01T13:18:24;83.63;;;78.13;;
2035;SDS011;23642;42.658;23.350;2023-04-01T13:20:59;86.30;;;80.40;;
2035;SDS011;23642;42.658;23.350;2023-04-01T13:23:42;89.10;;;83.03;;
2035;SDS011;23642;42.658;23.350;2023-04-01T13:26:21;91.80;;;85.57;;
2035;SDS011;23642;42.658;23.350;2023-04-01T13:28:56;100.93;;;93.83;;
2035;SDS011;23642;42.658;23.350;2023-04-01T13:31:34;107.37;;;99.60;;
2035;SDS011;23642;42.658;23.350;2023-04-01T13:34:17;109.87;;;102.00;;
2035;SDS011;23642;42.658;23.350;2023-04-01T13:36:56;109.40;;;101.37;;
2035;SDS011;23642;42.658;23.350;2023-04-01T13:39:53;111.40;;;103.10;;
2035;SDS011;23642;42.658;23.350;2023-04-01T13:42:29;115.10;;;106.90;;
2035;SDS011;23642;42.658;23.350;2023-04-01T13:45:02;115.53;;;107.10;;
2035;SDS011;23642;42.658;23.350;2023-04-01T13:51:04;113.57;;;105.57;;
2035;SDS011;23642;42.658;23.350;2023-04-01T13:57:00;116.20;;;107.80;;
2035;SDS011;23642;42.658;23.350;2023-04-01T14:02:55;121.97;;;113.30;;
2035;SDS011;23642;42.658;23.350;2023-04-01T14:05:47;121.80;;;113.30;;
2035;SDS011;23642;42.658;23.350;2023-04-01T14:08:29;119.23;;;110.50;;
2035;SDS011;23642;42.658;23.350;2023-04-01T14:11:11;122.73;;;113.93;;
2035;SDS011;23642;42.658;23.350;2023-04-01T14:13:46;122.37;;;113.53;;
2035;SDS011;23642;42.658;23.350;2023-04-01T14:19:41;115.30;;;107.23;;
2035;SDS011;23642;42.658;23.350;2023-04-01T14:22:30;114.67;;;106.10;;
2035;SDS011;23642;42.658;23.350;2023-04-01T14:25:23;111.43;;;103.57;;
2035;SDS011;23642;42.658;23.350;2023-04-01T14:28:00;99.70;;;92.47;;
2035;SDS011;23642;42.658;23.350;2023-04-01T14:30:46;99.23;;;92.20;;
2035;SDS011;23642;42.658;23.350;2023-04-01T14:33:35;101.97;;;94.43;;
2035;SDS011;23642;42.658;23.350;2023-04-01T14:36:19;100.83;;;93.83;;
2035;SDS011;23642;42.658;23.350;2023-04-01T14:39:08;98.40;;;91.60;;
2035;SDS011;23642;42.658;23.350;2023-04-01T14:41:51;98.97;;;92.07;;
2035;SDS011;23642;42.658;23.350;2023-04-01T14:47:39;98.07;;;91.30;;
2035;SDS011;23642;42.658;23.350;2023-04-01T14:50:16;98.07;;;91.37;;
2035;SDS011;23642;42.658;23.350;2023-04-01T14:52:54;98.23;;;91.23;;
2035;SDS011;23642;42.658;23.350;2023-04-01T14:55:34;101.77;;;94.53;;
2035;SDS011;23642;42.658;23.350;2023-04-01T14:58:14;99.53;;;92.67;;
2035;SDS011;23642;42.658;23.350;2023-04-01T15:00:47;101.97;;;94.70;;
2035;SDS011;23642;42.658;23.350;2023-04-01T15:03:22;98.70;;;92.00;;
2035;SDS011;23642;42.658;23.350;2023-04-01T15:05:56;101.67;;;94.43;;
2035;SDS011;23642;42.658;23.350;2023-04-01T15:08:37;100.40;;;93.43;;
2035;SDS011;23642;42.658;23.350;2023-04-01T15:11:21;100.60;;;93.77;;
2035;SDS011;23642;42.658;23.350;2023-04-01T15:14:01;100.00;;;92.87;;
2035;SDS011;23642;42.658;23.350;2023-04-01T15:16:46;98.53;;;91.90;;
2035;SDS011;23642;42.658;23.350;2023-04-01T15:19:22;99.53;;;92.03;;
2035;SDS011;23642;42.658;23.350;2023-04-01T15:21:59;99.30;;;92.60;;
2035;SDS011;23642;42.658;23.350;2023-04-01T15:25:00;95.87;;;89.33;;
2035;SDS011;23642;42.658;23.350;2023-04-01T15:27:42;97.30;;;90.60;;
2035;SDS011;23642;42.658;23.350;2023-04-01T15:30:19;97.60;;;90.87;;
2035;SDS011;23642;42.658;23.350;2023-04-01T15:33:00;95.50;;;89.00;;
2035;SDS011;23642;42.658;23.350;2023-04-01T15:35:39;92.03;;;85.50;;
2035;SDS011;23642;42.658;23.350;2023-04-01T15:38:14;93.37;;;86.57;;
2035;SDS011;23642;42.658;23.350;2023-04-01T15:40:54;96.47;;;89.97;;
2035;SDS011;23642;42.658;23.350;2023-04-01T15:43:32;93.60;;;86.83;;
2035;SDS011;23642;42.658;23.350;2023-04-01T15:46:14;93.53;;;87.30;;
2035;SDS011;23642;42.658;23.350;2023-04-01T15:48:56;93.10;;;86.50;;
2035;SDS011;23642;42.658;23.350;2023-04-01T15:51:40;95.20;;;88.77;;
2035;SDS011;23642;42.658;23.350;2023-04-01T15:57:20;99.10;;;91.40;;
2035;SDS011;23642;42.658;23.350;2023-04-01T16:00:04;91.13;;;85.13;;
2035;SDS011;23642;42.658;23.350;2023-04-01T16:02:40;95.17;;;89.03;;
2035;SDS011;23642;42.658;23.350;2023-04-01T16:05:21;91.30;;;85.50;;
2035;SDS011;23642;42.658;23.350;2023-04-01T16:08:06;82.10;;;77.30;;
2035;SDS011;23642;42.658;23.350;2023-04-01T16:10:55;80.37;;;75.67;;
2035;SDS011;23642;42.658;23.350;2023-04-01T16:13:33;73.17;;;68.87;;
2035;SDS011;23642;42.658;23.350;2023-04-01T16:16:13;70.83;;;66.83;;
2035;SDS011;23642;42.658;23.350;2023-04-01T16:18:57;69.90;;;66.00;;
2035;SDS011;23642;42.658;23.350;2023-04-01T16:21:37;65.27;;;61.67;;
2035;SDS011;23642;42.658;23.350;2023-04-01T16:24:12;64.70;;;61.20;;
2035;SDS011;23642;42.658;23.350;2023-04-01T16:26:48;65.23;;;61.63;;
2035;SDS011;23642;42.658;23.350;2023-04-01T16:29:22;67.30;;;63.57;;
2035;SDS011;23642;42.658;23.350;2023-04-01T16:31:59;68.40;;;64.60;;